Tizayuca Airport

Jump to: basic info | weather | runways | comments

Related pages: nearby airports | nearby navaids | notams | map

Basic information (top)

Codes: MM28
Location: lon 19.874001, lat -98.943604, elev 7,600 ft / 2,316 m msl
Status: small_airport

Weather (top)

Current conditions for Licenciado Benito Juarez International Airport 27nm (50km) SSW (rec'd 2014/10/23 01:43Z):

MMMX 230143Z 01011KT 15SM FEW080 SCT200 17/10 A3028 NOSIG RMK 8/032

Airport forecast for Licenciado Benito Juarez International Airport 27nm (50km) SSW (rec'd 2014/10/22 00:18Z):

TAF MMMX 222313Z 2300/2406 01015KT P6SM SCT020 BKN080 TX24/2321Z TN13/2312Z 
      BECMG 2302/2303 34008KT SCT080 
     FM231100 04005KT 6SM HZ SCT020 
      BECMG 2317/2318 08006KT SCT020 
     FM232100 04012KT P6SM SCT020 PROB40 2322/2401 6SM -RA SCT020CB BKN100 
     FM240300 08006KT P6SM SCT100

Runways (top)

01/19: 4,235 x 80 ft (1,291 x 24 m) — paved — not lighted

Latest comments (top)

No comments yet for Tizayuca Airport

More... (top)

See also NOTAMs and nearby airports and navaids, or visit the Tizayuca Airport page at the main OurAirports website..